sensor_id;sensor_type;location;lat;lon;timestamp;noise_LAeq;noise_LA_min;noise_LA_max;noise_LA01;noise_LA95
45109;Laerm;30447;48.742;8.972;2023-03-31T00:02:04;39.53;35.66;43.29;;
45109;Laerm;30447;48.742;8.972;2023-03-31T00:04:42;38.77;35.04;42.03;;
45109;Laerm;30447;48.742;8.972;2023-03-31T00:07:13;38.84;34.31;43.72;;
45109;Laerm;30447;48.742;8.972;2023-03-31T00:09:40;38.98;34.69;42.93;;
45109;Laerm;30447;48.742;8.972;2023-03-31T00:12:15;38.94;34.69;41.68;;
45109;Laerm;30447;48.742;8.972;2023-03-31T00:14:42;38.73;34.31;42.22;;
45109;Laerm;30447;48.742;8.972;2023-03-31T00:17:09;38.91;35.04;42.03;;
45109;Laerm;30447;48.742;8.972;2023-03-31T00:19:36;39.30;35.04;42.82;;
45109;Laerm;30447;48.742;8.972;2023-03-31T00:22:03;39.39;35.04;45.39;;
45109;Laerm;30447;48.742;8.972;2023-03-31T00:24:31;39.46;35.66;44.51;;
45109;Laerm;30447;48.742;8.972;2023-03-31T00:26:59;41.00;36.91;45.36;;
45109;Laerm;30447;48.742;8.972;2023-03-31T00:29:27;41.56;37.12;47.18;;
45109;Laerm;30447;48.742;8.972;2023-03-31T00:31:54;40.73;36.20;44.62;;
45109;Laerm;30447;48.742;8.972;2023-03-31T00:34:20;40.37;36.91;43.94;;
45109;Laerm;30447;48.742;8.972;2023-03-31T00:36:47;40.86;37.12;45.72;;
45109;Laerm;30447;48.742;8.972;2023-03-31T00:39:16;39.94;35.66;43.94;;
45109;Laerm;30447;48.742;8.972;2023-03-31T00:41:43;38.74;33.97;42.93;;
45109;Laerm;30447;48.742;8.972;2023-03-31T00:44:12;38.05;33.44;40.80;;
45109;Laerm;30447;48.742;8.972;2023-03-31T00:46:49;40.20;35.36;48.20;;
45109;Laerm;30447;48.742;8.972;2023-03-31T00:49:24;39.35;34.69;43.58;;
45109;Laerm;30447;48.742;8.972;2023-03-31T00:51:58;39.97;35.94;43.39;;
45109;Laerm;30447;48.742;8.972;2023-03-31T00:54:26;39.20;35.66;42.95;;
45109;Laerm;30447;48.742;8.972;2023-03-31T00:56:55;38.80;35.36;42.71;;
45109;Laerm;30447;48.742;8.972;2023-03-31T00:59:27;39.55;35.66;45.72;;
45109;Laerm;30447;48.742;8.972;2023-03-31T01:01:57;38.95;33.90;43.34;;
45109;Laerm;30447;48.742;8.972;2023-03-31T01:04:36;39.82;36.45;42.98;;
45109;Laerm;30447;48.742;8.972;2023-03-31T01:09:52;39.12;34.31;41.96;;
45109;Laerm;30447;48.742;8.972;2023-03-31T01:12:24;38.61;34.31;41.46;;
45109;Laerm;30447;48.742;8.972;2023-03-31T01:14:52;39.53;35.66;44.47;;
45109;Laerm;30447;48.742;8.972;2023-03-31T01:17:21;41.60;37.32;49.97;;
45109;Laerm;30447;48.742;8.972;2023-03-31T01:20:00;41.43;37.70;46.95;;
45109;Laerm;30447;48.742;8.972;2023-03-31T01:34:43;41.18;37.12;45.89;;
45109;Laerm;30447;48.742;8.972;2023-03-31T01:46:44;40.79;37.52;49.33;;
45109;Laerm;30447;48.742;8.972;2023-03-31T01:49:48;39.40;36.20;43.99;;
45109;Laerm;30447;48.742;8.972;2023-03-31T01:58:42;39.41;36.20;47.72;;
45109;Laerm;30447;48.742;8.972;2023-03-31T02:01:22;38.94;35.36;48.10;;
45109;Laerm;30447;48.742;8.972;2023-03-31T02:04:01;38.88;35.66;42.16;;
45109;Laerm;30447;48.742;8.972;2023-03-31T02:06:35;38.97;35.94;43.04;;
45109;Laerm;30447;48.742;8.972;2023-03-31T02:09:16;38.77;35.66;44.11;;
45109;Laerm;30447;48.742;8.972;2023-03-31T02:11:47;40.30;36.69;45.11;;
45109;Laerm;30447;48.742;8.972;2023-03-31T02:14:20;40.22;36.91;46.50;;
45109;Laerm;30447;48.742;8.972;2023-03-31T02:16:53;38.98;35.36;42.16;;
45109;Laerm;30447;48.742;8.972;2023-03-31T02:19:31;39.25;35.36;43.63;;
45109;Laerm;30447;48.742;8.972;2023-03-31T02:22:02;39.02;35.36;42.41;;
45109;Laerm;30447;48.742;8.972;2023-03-31T02:24:33;38.92;34.69;42.88;;
45109;Laerm;30447;48.742;8.972;2023-03-31T02:27:03;38.83;34.69;46.23;;
45109;Laerm;30447;48.742;8.972;2023-03-31T02:29:31;38.12;34.31;40.71;;
45109;Laerm;30447;48.742;8.972;2023-03-31T02:32:31;38.26;33.44;42.29;;
45109;Laerm;30447;48.742;8.972;2023-03-31T02:34:59;38.72;33.90;51.11;;
45109;Laerm;30447;48.742;8.972;2023-03-31T02:37:28;39.27;35.94;42.16;;
45109;Laerm;30447;48.742;8.972;2023-03-31T02:39:59;39.92;36.10;44.27;;
45109;Laerm;30447;48.742;8.972;2023-03-31T02:42:26;39.48;35.36;43.58;;
45109;Laerm;30447;48.742;8.972;2023-03-31T02:44:53;39.13;35.66;42.29;;
45109;Laerm;30447;48.742;8.972;2023-03-31T02:47:20;38.73;35.36;42.29;;
45109;Laerm;30447;48.742;8.972;2023-03-31T02:49:55;38.39;34.69;40.96;;
45109;Laerm;30447;48.742;8.972;2023-03-31T02:55:58;38.86;34.31;44.58;;
45109;Laerm;30447;48.742;8.972;2023-03-31T02:58:41;39.38;32.93;45.07;;
45109;Laerm;30447;48.742;8.972;2023-03-31T03:01:20;39.61;34.69;44.62;;
45109;Laerm;30447;48.742;8.972;2023-03-31T03:09:43;39.54;35.04;44.31;;
45109;Laerm;30447;48.742;8.972;2023-03-31T03:12:31;38.89;34.31;42.09;;
45109;Laerm;30447;48.742;8.972;2023-03-31T03:15:24;40.58;35.01;46.64;;
45109;Laerm;30447;48.742;8.972;2023-03-31T03:17:55;40.19;36.56;43.63;;
45109;Laerm;30447;48.742;8.972;2023-03-31T03:20:22;39.32;35.66;44.49;;
45109;Laerm;30447;48.742;8.972;2023-03-31T03:22:49;40.00;35.94;44.94;;
45109;Laerm;30447;48.742;8.972;2023-03-31T03:25:16;39.18;35.36;42.35;;
45109;Laerm;30447;48.742;8.972;2023-03-31T03:27:43;39.16;34.69;43.49;;
45109;Laerm;30447;48.742;8.972;2023-03-31T03:30:11;39.83;35.94;44.69;;
45109;Laerm;30447;48.742;8.972;2023-03-31T03:32:38;39.64;36.20;46.05;;
45109;Laerm;30447;48.742;8.972;2023-03-31T03:35:06;39.52;36.20;43.58;;
45109;Laerm;30447;48.742;8.972;2023-03-31T03:37:33;39.44;35.66;46.33;;
45109;Laerm;30447;48.742;8.972;2023-03-31T03:39:59;39.77;35.94;51.26;;
45109;Laerm;30447;48.742;8.972;2023-03-31T03:42:26;39.89;35.66;52.59;;
45109;Laerm;30447;48.742;8.972;2023-03-31T03:44:52;39.32;35.66;49.72;;
45109;Laerm;30447;48.742;8.972;2023-03-31T03:47:19;44.05;35.66;63.92;;
45109;Laerm;30447;48.742;8.972;2023-03-31T03:49:45;53.28;37.32;68.99;;
45109;Laerm;30447;48.742;8.972;2023-03-31T03:52:14;52.93;36.91;67.37;;
45109;Laerm;30447;48.742;8.972;2023-03-31T03:54:41;53.62;36.20;68.85;;
45109;Laerm;30447;48.742;8.972;2023-03-31T03:57:07;54.10;36.69;70.07;;
45109;Laerm;30447;48.742;8.972;2023-03-31T03:59:34;53.42;36.69;68.86;;
45109;Laerm;30447;48.742;8.972;2023-03-31T04:02:00;54.24;37.32;68.32;;
45109;Laerm;30447;48.742;8.972;2023-03-31T04:04:26;54.42;37.88;71.20;;
45109;Laerm;30447;48.742;8.972;2023-03-31T04:06:53;54.39;37.32;70.13;;
45109;Laerm;30447;48.742;8.972;2023-03-31T04:09:19;54.85;37.88;69.55;;
45109;Laerm;30447;48.742;8.972;2023-03-31T04:11:46;55.40;38.05;72.27;;
45109;Laerm;30447;48.742;8.972;2023-03-31T04:14:12;55.42;38.21;72.88;;
45109;Laerm;30447;48.742;8.972;2023-03-31T04:16:39;56.69;38.21;71.37;;
45109;Laerm;30447;48.742;8.972;2023-03-31T04:19:05;52.54;38.67;67.88;;
45109;Laerm;30447;48.742;8.972;2023-03-31T04:21:32;51.92;39.21;66.99;;
45109;Laerm;30447;48.742;8.972;2023-03-31T04:24:02;55.76;39.70;68.19;;
45109;Laerm;30447;48.742;8.972;2023-03-31T04:26:32;54.08;38.67;69.61;;
45109;Laerm;30447;48.742;8.972;2023-03-31T04:29:12;54.70;39.34;73.90;;
45109;Laerm;30447;48.742;8.972;2023-03-31T04:31:39;54.62;38.21;72.79;;
45109;Laerm;30447;48.742;8.972;2023-03-31T04:34:11;54.92;39.08;74.98;;
45109;Laerm;30447;48.742;8.972;2023-03-31T04:36:43;56.59;38.21;73.72;;
45109;Laerm;30447;48.742;8.972;2023-03-31T04:39:14;56.67;38.67;74.90;;
45109;Laerm;30447;48.742;8.972;2023-03-31T04:41:42;51.62;38.81;68.28;;
45109;Laerm;30447;48.742;8.972;2023-03-31T04:44:08;44.65;38.05;65.82;;
45109;Laerm;30447;48.742;8.972;2023-03-31T04:46:35;40.74;37.88;51.30;;
45109;Laerm;30447;48.742;8.972;2023-03-31T04:49:02;42.16;38.52;55.41;;
45109;Laerm;30447;48.742;8.972;2023-03-31T04:51:28;44.29;39.08;56.98;;
45109;Laerm;30447;48.742;8.972;2023-03-31T04:53:54;44.63;38.95;59.65;;
45109;Laerm;30447;48.742;8.972;2023-03-31T04:56:21;45.89;38.67;60.37;;
45109;Laerm;30447;48.742;8.972;2023-03-31T04:58:48;45.87;39.34;60.00;;
45109;Laerm;30447;48.742;8.972;2023-03-31T05:01:14;45.47;39.46;63.37;;
45109;Laerm;30447;48.742;8.972;2023-03-31T05:03:44;45.10;40.79;57.80;;
45109;Laerm;30447;48.742;8.972;2023-03-31T05:06:10;44.12;40.62;58.75;;
45109;Laerm;30447;48.742;8.972;2023-03-31T05:08:37;43.48;40.43;53.93;;
45109;Laerm;30447;48.742;8.972;2023-03-31T05:11:03;45.42;42.65;56.49;;
45109;Laerm;30447;48.742;8.972;2023-03-31T05:13:31;49.29;44.47;55.39;;
45109;Laerm;30447;48.742;8.972;2023-03-31T05:16:05;50.76;46.28;55.96;;
45109;Laerm;30447;48.742;8.972;2023-03-31T05:18:31;49.08;43.19;56.59;;
45109;Laerm;30447;48.742;8.972;2023-03-31T05:21:08;44.24;42.03;48.32;;
45109;Laerm;30447;48.742;8.972;2023-03-31T05:23:35;43.83;40.71;49.27;;
45109;Laerm;30447;48.742;8.972;2023-03-31T05:26:01;44.60;42.22;55.06;;
45109;Laerm;30447;48.742;8.972;2023-03-31T05:28:28;44.20;41.89;48.32;;
45109;Laerm;30447;48.742;8.972;2023-03-31T05:30:54;46.51;42.65;51.66;;
45109;Laerm;30447;48.742;8.972;2023-03-31T05:33:21;44.31;41.68;53.84;;
45109;Laerm;30447;48.742;8.972;2023-03-31T05:35:47;46.10;42.09;53.78;;
45109;Laerm;30447;48.742;8.972;2023-03-31T05:38:13;51.18;46.66;58.34;;
45109;Laerm;30447;48.742;8.972;2023-03-31T05:40:40;53.00;47.63;57.49;;
45109;Laerm;30447;48.742;8.972;2023-03-31T05:43:06;50.57;46.57;55.48;;
45109;Laerm;30447;48.742;8.972;2023-03-31T05:45:33;47.43;42.98;52.42;;
45109;Laerm;30447;48.742;8.972;2023-03-31T05:47:59;43.18;41.30;52.07;;
45109;Laerm;30447;48.742;8.972;2023-03-31T05:50:26;42.86;39.81;52.56;;
45109;Laerm;30447;48.742;8.972;2023-03-31T05:52:53;42.46;39.34;53.63;;
45109;Laerm;30447;48.742;8.972;2023-03-31T05:55:19;42.36;39.81;53.01;;
45109;Laerm;30447;48.742;8.972;2023-03-31T05:57:45;43.34;40.62;51.47;;
45109;Laerm;30447;48.742;8.972;2023-03-31T06:00:12;44.23;40.80;52.46;;
45109;Laerm;30447;48.742;8.972;2023-03-31T06:02:39;43.22;40.43;58.32;;
45109;Laerm;30447;48.742;8.972;2023-03-31T06:05:07;42.88;39.81;53.94;;
45109;Laerm;30447;48.742;8.972;2023-03-31T06:07:33;42.60;40.33;47.34;;
45109;Laerm;30447;48.742;8.972;2023-03-31T06:10:00;42.46;40.33;47.57;;
45109;Laerm;30447;48.742;8.972;2023-03-31T06:12:26;47.38;39.92;66.50;;
45109;Laerm;30447;48.742;8.972;2023-03-31T06:14:53;47.74;39.21;57.29;;
45109;Laerm;30447;48.742;8.972;2023-03-31T06:17:19;48.18;40.03;61.33;;
45109;Laerm;30447;48.742;8.972;2023-03-31T06:19:46;48.04;40.13;64.05;;
45109;Laerm;30447;48.742;8.972;2023-03-31T06:22:12;44.56;40.23;52.96;;
45109;Laerm;30447;48.742;8.972;2023-03-31T06:24:39;42.81;40.43;48.16;;
45109;Laerm;30447;48.742;8.972;2023-03-31T06:27:05;44.38;41.89;51.22;;
45109;Laerm;30447;48.742;8.972;2023-03-31T06:29:32;46.20;42.59;53.14;;
45109;Laerm;30447;48.742;8.972;2023-03-31T06:31:58;44.74;41.30;50.72;;
45109;Laerm;30447;48.742;8.972;2023-03-31T06:34:26;46.80;43.90;51.92;;
45109;Laerm;30447;48.742;8.972;2023-03-31T06:36:52;47.49;42.47;54.39;;
45109;Laerm;30447;48.742;8.972;2023-03-31T06:39:19;48.35;43.77;53.43;;
45109;Laerm;30447;48.742;8.972;2023-03-31T06:41:45;48.94;45.01;53.54;;
45109;Laerm;30447;48.742;8.972;2023-03-31T06:44:12;46.74;43.90;52.71;;
45109;Laerm;30447;48.742;8.972;2023-03-31T06:46:42;46.20;42.41;53.74;;
45109;Laerm;30447;48.742;8.972;2023-03-31T06:49:08;44.02;41.68;53.51;;
45109;Laerm;30447;48.742;8.972;2023-03-31T06:51:35;44.90;42.71;50.77;;
45109;Laerm;30447;48.742;8.972;2023-03-31T06:54:01;47.44;42.53;57.03;;
45109;Laerm;30447;48.742;8.972;2023-03-31T06:56:27;46.39;43.24;55.45;;
45109;Laerm;30447;48.742;8.972;2023-03-31T06:58:54;44.89;42.71;52.60;;
45109;Laerm;30447;48.742;8.972;2023-03-31T07:01:20;45.04;42.53;55.65;;
45109;Laerm;30447;48.742;8.972;2023-03-31T07:03:47;46.83;42.82;54.57;;
45109;Laerm;30447;48.742;8.972;2023-03-31T07:06:13;44.66;41.96;52.55;;
45109;Laerm;30447;48.742;8.972;2023-03-31T07:08:40;44.89;41.96;50.04;;
45109;Laerm;30447;48.742;8.972;2023-03-31T07:11:06;45.87;41.30;67.67;;
45109;Laerm;30447;48.742;8.972;2023-03-31T07:13:33;44.12;40.80;55.93;;
45109;Laerm;30447;48.742;8.972;2023-03-31T07:16:01;45.26;41.22;62.58;;
45109;Laerm;30447;48.742;8.972;2023-03-31T07:18:30;44.40;41.53;51.54;;
45109;Laerm;30447;48.742;8.972;2023-03-31T07:21:00;44.70;41.75;58.04;;
45109;Laerm;30447;48.742;8.972;2023-03-31T07:23:26;46.56;41.46;68.62;;
45109;Laerm;30447;48.742;8.972;2023-03-31T07:25:53;44.38;41.30;54.36;;
45109;Laerm;30447;48.742;8.972;2023-03-31T07:28:19;43.86;41.68;52.36;;
45109;Laerm;30447;48.742;8.972;2023-03-31T07:30:46;44.02;40.98;57.06;;
45109;Laerm;30447;48.742;8.972;2023-03-31T07:33:12;45.85;41.61;58.08;;
45109;Laerm;30447;48.742;8.972;2023-03-31T07:35:40;44.86;40.23;56.18;;
45109;Laerm;30447;48.742;8.972;2023-03-31T07:38:08;43.05;40.23;47.38;;
45109;Laerm;30447;48.742;8.972;2023-03-31T07:40:36;42.82;40.53;46.73;;
45109;Laerm;30447;48.742;8.972;2023-03-31T07:43:03;43.25;40.23;57.27;;
45109;Laerm;30447;48.742;8.972;2023-03-31T07:45:30;43.40;41.30;52.54;;
45109;Laerm;30447;48.742;8.972;2023-03-31T07:47:57;43.65;40.13;55.41;;
45109;Laerm;30447;48.742;8.972;2023-03-31T07:50:24;45.47;40.71;58.41;;
45109;Laerm;30447;48.742;8.972;2023-03-31T07:52:50;42.48;39.58;50.02;;
45109;Laerm;30447;48.742;8.972;2023-03-31T07:55:18;49.35;40.13;63.94;;
45109;Laerm;30447;48.742;8.972;2023-03-31T07:57:45;42.25;39.46;56.33;;
45109;Laerm;30447;48.742;8.972;2023-03-31T08:00:14;42.17;39.34;50.92;;
45109;Laerm;30447;48.742;8.972;2023-03-31T08:02:42;43.54;39.92;51.47;;
45109;Laerm;30447;48.742;8.972;2023-03-31T08:05:10;43.02;39.34;54.29;;
45109;Laerm;30447;48.742;8.972;2023-03-31T08:07:40;42.18;37.88;54.94;;
45109;Laerm;30447;48.742;8.972;2023-03-31T08:10:11;45.50;38.37;56.88;;
45109;Laerm;30447;48.742;8.972;2023-03-31T08:12:38;41.83;38.37;52.21;;
45109;Laerm;30447;48.742;8.972;2023-03-31T08:15:05;42.06;37.88;57.96;;
45109;Laerm;30447;48.742;8.972;2023-03-31T08:17:32;44.58;37.70;65.36;;
45109;Laerm;30447;48.742;8.972;2023-03-31T08:19:58;43.21;38.37;59.75;;
45109;Laerm;30447;48.742;8.972;2023-03-31T08:22:25;45.62;38.21;66.46;;
45109;Laerm;30447;48.742;8.972;2023-03-31T08:24:51;43.21;38.81;56.66;;
45109;Laerm;30447;48.742;8.972;2023-03-31T08:27:18;42.29;39.21;51.67;;
45109;Laerm;30447;48.742;8.972;2023-03-31T08:29:44;41.58;38.21;48.66;;
45109;Laerm;30447;48.742;8.972;2023-03-31T08:32:10;42.12;38.95;47.26;;
45109;Laerm;30447;48.742;8.972;2023-03-31T08:34:37;42.48;39.70;53.56;;
45109;Laerm;30447;48.742;8.972;2023-03-31T08:37:03;44.31;40.13;60.23;;
45109;Laerm;30447;48.742;8.972;2023-03-31T08:39:30;43.83;40.13;53.42;;
45109;Laerm;30447;48.742;8.972;2023-03-31T08:42:03;44.47;39.08;65.60;;
45109;Laerm;30447;48.742;8.972;2023-03-31T08:45:05;43.29;40.23;56.93;;
45109;Laerm;30447;48.742;8.972;2023-03-31T08:47:35;43.03;40.13;47.42;;
45109;Laerm;30447;48.742;8.972;2023-03-31T08:50:13;43.77;40.89;55.44;;
45109;Laerm;30447;48.742;8.972;2023-03-31T08:53:16;49.35;41.06;73.50;;
45109;Laerm;30447;48.742;8.972;2023-03-31T08:55:51;43.92;40.71;51.77;;
45109;Laerm;30447;48.742;8.972;2023-03-31T08:58:25;44.77;40.89;58.70;;
45109;Laerm;30447;48.742;8.972;2023-03-31T09:01:17;48.83;41.89;67.01;;
45109;Laerm;30447;48.742;8.972;2023-03-31T09:18:09;48.50;42.47;67.04;;
45109;Laerm;30447;48.742;8.972;2023-03-31T09:20:44;47.72;42.93;57.81;;
45109;Laerm;30447;48.742;8.972;2023-03-31T09:28:48;46.17;41.68;59.39;;
45109;Laerm;30447;48.742;8.972;2023-03-31T09:31:18;49.82;43.81;65.35;;
45109;Laerm;30447;48.742;8.972;2023-03-31T09:33:46;54.42;42.93;74.12;;
45109;Laerm;30447;48.742;8.972;2023-03-31T09:36:16;49.25;42.41;66.00;;
45109;Laerm;30447;48.742;8.972;2023-03-31T09:38:45;44.92;41.30;55.07;;
45109;Laerm;30447;48.742;8.972;2023-03-31T09:41:14;45.03;40.53;66.66;;
45109;Laerm;30447;48.742;8.972;2023-03-31T09:43:42;44.70;41.38;56.28;;
45109;Laerm;30447;48.742;8.972;2023-03-31T09:46:34;48.37;42.59;68.16;;
45109;Laerm;30447;48.742;8.972;2023-03-31T09:49:13;46.25;41.61;64.71;;
45109;Laerm;30447;48.742;8.972;2023-03-31T09:51:44;44.52;41.46;54.59;;
45109;Laerm;30447;48.742;8.972;2023-03-31T09:54:26;44.66;40.98;59.57;;
45109;Laerm;30447;48.742;8.972;2023-03-31T09:56:54;43.82;40.80;51.16;;
45109;Laerm;30447;48.742;8.972;2023-03-31T09:59:41;45.84;41.89;59.41;;
45109;Laerm;30447;48.742;8.972;2023-03-31T10:02:35;45.98;41.68;57.65;;
45109;Laerm;30447;48.742;8.972;2023-03-31T10:05:04;47.83;39.92;66.10;;
45109;Laerm;30447;48.742;8.972;2023-03-31T10:07:32;44.35;40.23;58.97;;
45109;Laerm;30447;48.742;8.972;2023-03-31T10:09:59;43.34;40.23;55.67;;
45109;Laerm;30447;48.742;8.972;2023-03-31T10:12:30;43.38;39.92;54.04;;
45109;Laerm;30447;48.742;8.972;2023-03-31T10:15:26;43.62;41.38;56.14;;
45109;Laerm;30447;48.742;8.972;2023-03-31T10:17:57;44.85;41.53;59.39;;
45109;Laerm;30447;48.742;8.972;2023-03-31T10:20:33;46.02;41.96;64.27;;
45109;Laerm;30447;48.742;8.972;2023-03-31T10:23:17;46.77;41.22;65.56;;
45109;Laerm;30447;48.742;8.972;2023-03-31T10:25:46;45.92;40.62;59.20;;
45109;Laerm;30447;48.742;8.972;2023-03-31T10:28:16;45.92;41.22;57.14;;
45109;Laerm;30447;48.742;8.972;2023-03-31T10:30:50;49.22;42.41;65.93;;
45109;Laerm;30447;48.742;8.972;2023-03-31T10:33:22;48.92;41.46;65.66;;
45109;Laerm;30447;48.742;8.972;2023-03-31T10:36:02;50.55;41.53;68.90;;
45109;Laerm;30447;48.742;8.972;2023-03-31T10:38:38;45.92;40.43;65.49;;
45109;Laerm;30447;48.742;8.972;2023-03-31T10:41:08;44.53;40.71;61.75;;
45109;Laerm;30447;48.742;8.972;2023-03-31T10:43:47;47.52;41.38;65.18;;
45109;Laerm;30447;48.742;8.972;2023-03-31T10:46:15;44.63;40.80;58.91;;
45109;Laerm;30447;48.742;8.972;2023-03-31T10:48:42;44.32;41.46;57.31;;
45109;Laerm;30447;48.742;8.972;2023-03-31T10:53:47;44.63;40.23;59.63;;
45109;Laerm;30447;48.742;8.972;2023-03-31T11:04:57;51.79;42.71;73.75;;
45109;Laerm;30447;48.742;8.972;2023-03-31T11:07:34;54.60;42.93;74.54;;
45109;Laerm;30447;48.742;8.972;2023-03-31T11:13:12;58.37;46.30;78.58;;
45109;Laerm;30447;48.742;8.972;2023-03-31T11:18:53;57.15;47.88;74.03;;
45109;Laerm;30447;48.742;8.972;2023-03-31T11:21:53;57.29;45.77;73.99;;
45109;Laerm;30447;48.742;8.972;2023-03-31T11:30:16;47.98;43.24;63.01;;
45109;Laerm;30447;48.742;8.972;2023-03-31T11:35:47;52.02;43.09;74.80;;
45109;Laerm;30447;48.742;8.972;2023-03-31T11:38:46;49.17;42.41;67.08;;
45109;Laerm;30447;48.742;8.972;2023-03-31T11:41:39;44.30;41.61;53.40;;
45109;Laerm;30447;48.742;8.972;2023-03-31T11:44:14;45.48;41.38;61.21;;
45109;Laerm;30447;48.742;8.972;2023-03-31T11:46:52;45.06;41.89;57.14;;
45109;Laerm;30447;48.742;8.972;2023-03-31T11:49:31;45.64;41.61;61.71;;
45109;Laerm;30447;48.742;8.972;2023-03-31T11:52:21;44.30;41.89;53.82;;
45109;Laerm;30447;48.742;8.972;2023-03-31T11:55:19;43.65;41.06;55.81;;
45109;Laerm;30447;48.742;8.972;2023-03-31T12:00:27;43.21;40.03;55.15;;
45109;Laerm;30447;48.742;8.972;2023-03-31T12:03:09;42.99;39.81;53.86;;
45109;Laerm;30447;48.742;8.972;2023-03-31T12:05:48;44.50;40.43;64.79;;
45109;Laerm;30447;48.742;8.972;2023-03-31T12:11:12;42.33;40.13;46.15;;
45109;Laerm;30447;48.742;8.972;2023-03-31T12:14:05;42.97;39.58;52.52;;
45109;Laerm;30447;48.742;8.972;2023-03-31T12:17:10;43.32;40.79;57.94;;
45109;Laerm;30447;48.742;8.972;2023-03-31T12:19:49;43.34;41.06;56.14;;
45109;Laerm;30447;48.742;8.972;2023-03-31T12:22:36;42.89;40.43;53.72;;
45109;Laerm;30447;48.742;8.972;2023-03-31T12:25:05;42.77;38.95;49.66;;
45109;Laerm;30447;48.742;8.972;2023-03-31T12:27:44;43.70;40.33;55.44;;
45109;Laerm;30447;48.742;8.972;2023-03-31T12:30:29;44.46;40.43;59.76;;
45109;Laerm;30447;48.742;8.972;2023-03-31T12:33:04;45.26;40.33;60.71;;
45109;Laerm;30447;48.742;8.972;2023-03-31T12:41:23;42.96;40.33;53.34;;
45109;Laerm;30447;48.742;8.972;2023-03-31T12:47:02;42.54;40.13;52.43;;
45109;Laerm;30447;48.742;8.972;2023-03-31T12:50:00;43.65;41.03;54.23;;
45109;Laerm;30447;48.742;8.972;2023-03-31T12:55:05;43.37;40.43;50.36;;
45109;Laerm;30447;48.742;8.972;2023-03-31T12:57:42;44.42;40.53;62.35;;
45109;Laerm;30447;48.742;8.972;2023-03-31T13:02:47;46.65;42.47;60.39;;
45109;Laerm;30447;48.742;8.972;2023-03-31T13:08:04;55.04;44.80;76.15;;
45109;Laerm;30447;48.742;8.972;2023-03-31T13:10:32;51.31;44.94;66.68;;
45109;Laerm;30447;48.742;8.972;2023-03-31T13:13:03;57.60;47.65;71.67;;
45109;Laerm;30447;48.742;8.972;2023-03-31T13:15:31;57.71;50.44;70.12;;
45109;Laerm;30447;48.742;8.972;2023-03-31T13:18:01;56.83;49.55;73.03;;
45109;Laerm;30447;48.742;8.972;2023-03-31T13:20:37;56.06;49.75;73.48;;
45109;Laerm;30447;48.742;8.972;2023-03-31T13:25:58;54.80;46.55;70.97;;
45109;Laerm;30447;48.742;8.972;2023-03-31T13:34:38;56.20;49.89;65.65;;
45109;Laerm;30447;48.742;8.972;2023-03-31T13:37:32;54.78;49.54;67.98;;
45109;Laerm;30447;48.742;8.972;2023-03-31T13:40:36;52.76;47.24;65.17;;
45109;Laerm;30447;48.742;8.972;2023-03-31T13:43:41;52.03;45.99;68.07;;
45109;Laerm;30447;48.742;8.972;2023-03-31T13:49:49;50.61;46.48;57.60;;
45109;Laerm;30447;48.742;8.972;2023-03-31T13:52:43;50.39;44.90;59.35;;
45109;Laerm;30447;48.742;8.972;2023-03-31T14:01:15;44.52;42.59;51.50;;
45109;Laerm;30447;48.742;8.972;2023-03-31T14:11:46;44.83;41.06;59.88;;
45109;Laerm;30447;48.742;8.972;2023-03-31T14:14:15;45.46;41.82;58.26;;
45109;Laerm;30447;48.742;8.972;2023-03-31T14:16:47;43.83;41.46;57.01;;
45109;Laerm;30447;48.742;8.972;2023-03-31T14:19:42;43.15;40.98;54.36;;
45109;Laerm;30447;48.742;8.972;2023-03-31T14:25:12;46.12;41.38;62.13;;
45109;Laerm;30447;48.742;8.972;2023-03-31T14:38:44;42.20;40.03;50.47;;
45109;Laerm;30447;48.742;8.972;2023-03-31T14:41:17;42.34;39.58;46.02;;
45109;Laerm;30447;48.742;8.972;2023-03-31T14:43:49;42.58;36.45;51.47;;
45109;Laerm;30447;48.742;8.972;2023-03-31T14:46:20;42.39;39.58;52.85;;
45109;Laerm;30447;48.742;8.972;2023-03-31T14:48:50;42.95;38.21;56.89;;
45109;Laerm;30447;48.742;8.972;2023-03-31T14:51:26;41.68;38.81;50.05;;
45109;Laerm;30447;48.742;8.972;2023-03-31T14:53:58;43.28;39.46;64.75;;
45109;Laerm;30447;48.742;8.972;2023-03-31T14:56:36;41.61;39.08;55.35;;
45109;Laerm;30447;48.742;8.972;2023-03-31T14:59:06;41.44;38.52;49.56;;
45109;Laerm;30447;48.742;8.972;2023-03-31T15:01:35;41.28;38.05;48.02;;
45109;Laerm;30447;48.742;8.972;2023-03-31T15:04:10;42.00;38.05;51.36;;
45109;Laerm;30447;48.742;8.972;2023-03-31T15:06:44;43.51;39.34;54.64;;
45109;Laerm;30447;48.742;8.972;2023-03-31T15:09:20;43.15;39.21;58.43;;
45109;Laerm;30447;48.742;8.972;2023-03-31T15:11:57;43.79;40.23;55.16;;
45109;Laerm;30447;48.742;8.972;2023-03-31T15:14:30;43.68;39.34;53.94;;
45109;Laerm;30447;48.742;8.972;2023-03-31T15:16:59;43.60;40.80;53.71;;
45109;Laerm;30447;48.742;8.972;2023-03-31T15:19:31;43.82;39.81;52.84;;
45109;Laerm;30447;48.742;8.972;2023-03-31T15:22:07;42.61;39.81;59.16;;
45109;Laerm;30447;48.742;8.972;2023-03-31T15:24:35;41.90;38.52;50.10;;
45109;Laerm;30447;48.742;8.972;2023-03-31T15:29:50;45.70;41.06;61.11;;
45109;Laerm;30447;48.742;8.972;2023-03-31T15:32:25;41.91;39.21;50.75;;
45109;Laerm;30447;48.742;8.972;2023-03-31T15:34:53;43.06;40.13;53.76;;
45109;Laerm;30447;48.742;8.972;2023-03-31T15:37:30;46.54;40.03;61.73;;
45109;Laerm;30447;48.742;8.972;2023-03-31T15:40:02;42.69;39.58;52.93;;
45109;Laerm;30447;48.742;8.972;2023-03-31T15:42:33;42.85;40.23;51.83;;
45109;Laerm;30447;48.742;8.972;2023-03-31T15:48:02;41.50;37.88;48.20;;
45109;Laerm;30447;48.742;8.972;2023-03-31T15:50:31;41.81;39.34;47.68;;
45109;Laerm;30447;48.742;8.972;2023-03-31T15:52:58;41.50;38.18;46.30;;
45109;Laerm;30447;48.742;8.972;2023-03-31T15:57:58;43.17;40.23;50.40;;
45109;Laerm;30447;48.742;8.972;2023-03-31T16:00:43;42.50;39.46;57.18;;
45109;Laerm;30447;48.742;8.972;2023-03-31T16:03:17;42.92;39.70;59.79;;
45109;Laerm;30447;48.742;8.972;2023-03-31T16:08:34;48.56;40.53;74.14;;
45109;Laerm;30447;48.742;8.972;2023-03-31T16:11:12;45.77;40.62;64.08;;
45109;Laerm;30447;48.742;8.972;2023-03-31T16:13:44;44.06;41.26;53.86;;
45109;Laerm;30447;48.742;8.972;2023-03-31T16:16:19;47.38;41.14;66.21;;
45109;Laerm;30447;48.742;8.972;2023-03-31T16:18:59;43.66;39.70;54.85;;
45109;Laerm;30447;48.742;8.972;2023-03-31T16:21:40;44.19;40.33;57.04;;
45109;Laerm;30447;48.742;8.972;2023-03-31T16:24:08;46.61;41.96;59.43;;
45109;Laerm;30447;48.742;8.972;2023-03-31T16:26:37;45.50;41.75;59.95;;
45109;Laerm;30447;48.742;8.972;2023-03-31T16:29:04;48.98;44.15;55.25;;
45109;Laerm;30447;48.742;8.972;2023-03-31T16:31:39;45.89;41.14;53.74;;
45109;Laerm;30447;48.742;8.972;2023-03-31T16:34:08;43.97;40.13;72.51;;
45109;Laerm;30447;48.742;8.972;2023-03-31T16:36:35;42.58;39.81;56.28;;
45109;Laerm;30447;48.742;8.972;2023-03-31T16:39:03;42.10;39.34;48.90;;
45109;Laerm;30447;48.742;8.972;2023-03-31T16:41:31;43.55;39.46;56.88;;
45109;Laerm;30447;48.742;8.972;2023-03-31T16:43:58;42.73;39.70;56.32;;
45109;Laerm;30447;48.742;8.972;2023-03-31T16:46:25;42.61;40.23;48.57;;
45109;Laerm;30447;48.742;8.972;2023-03-31T16:48:52;41.81;38.95;47.26;;
45109;Laerm;30447;48.742;8.972;2023-03-31T16:51:18;42.27;39.58;53.48;;